Time;durP1;ratioP1;P1;durP2;ratioP2;P2;SDS_P1;SDS_P2;PMS_P1;PMS_P2;Temp;Humidity;BMP_temperature;BMP_pressure;BME280_temperature;BME280_humidity;BME280_pressure;Samples;Min_cycle;Max_cycle;Signal;HPM_P1;HPM_P2
2024/01/19 05:30:27;;;;;;;0.17;0.17;;;-1.40;85.40;;;;;;5929119;23;22068;-77
2024/01/19 05:32:53;;;;;;;0.20;0.20;;;-1.40;85.50;;;;;;4991944;28;20030;-78
2024/01/19 05:35:18;;;;;;;0.10;0.10;;;-1.50;85.50;;;;;;4998897;28;20103;-77
2024/01/19 05:37:44;;;;;;;0.20;0.20;;;-1.50;86.00;;;;;;4999085;28;20030;-77
2024/01/19 05:40:10;;;;;;;0.20;0.20;;;-1.40;86.20;;;;;;4996282;28;20113;-78
2024/01/19 05:42:36;;;;;;;0.20;0.20;;;-1.40;86.50;;;;;;4979562;28;20035;-77
2024/01/19 05:45:01;;;;;;;0.20;0.20;;;-1.50;86.50;;;;;;4995613;28;20041;-78
2024/01/19 05:47:27;;;;;;;0.20;0.20;;;-1.50;86.40;;;;;;4999138;28;20030;-77
2024/01/19 05:49:53;;;;;;;0.10;0.10;;;-1.50;86.40;;;;;;4992143;28;20046;-78
2024/01/19 05:52:19;;;;;;;0.10;0.10;;;-1.60;86.50;;;;;;4998863;28;20030;-76
2024/01/19 05:54:44;;;;;;;0.20;0.20;;;-1.50;86.70;;;;;;4999091;28;20105;-79
2024/01/19 05:57:10;;;;;;;0.10;0.10;;;-1.60;86.70;;;;;;4982771;28;20494;-77
2024/01/19 05:59:38;;;;;;;0.20;0.20;;;-1.60;86.30;;;;;;4981196;28;20026;-77
2024/01/19 06:02:04;;;;;;;0.10;0.10;;;-1.70;85.80;;;;;;4997818;28;20023;-81
2024/01/19 06:04:33;;;;;;;0.10;0.10;;;-1.70;85.80;;;;;;4996385;28;20030;-81
2024/01/19 06:06:59;;;;;;;0.20;0.20;;;-1.70;85.30;;;;;;5013347;28;20097;-81
2024/01/19 06:09:25;;;;;;;0.20;0.20;;;-1.70;85.50;;;;;;4993035;28;20372;-87
2024/01/19 06:11:51;;;;;;;0.20;0.20;;;-1.80;84.50;;;;;;4978339;28;20038;-86
2024/01/19 06:14:16;;;;;;;0.20;0.20;;;-1.80;85.80;;;;;;4977835;28;20018;-87
2024/01/19 06:16:42;;;;;;;0.20;0.20;;;-1.70;85.60;;;;;;4978165;28;20633;-85
2024/01/19 06:19:07;;;;;;;0.20;0.20;;;-1.70;86.20;;;;;;4979050;28;20089;-87
2024/01/19 06:21:33;;;;;;;0.20;0.20;;;-1.70;86.30;;;;;;4981518;28;20037;-90
2024/01/19 06:23:59;;;;;;;0.17;0.17;;;-1.70;86.80;;;;;;4972860;28;20132;-89
2024/01/19 06:26:25;;;;;;;0.20;0.20;;;-1.70;86.90;;;;;;4979596;28;20117;-88
2024/01/19 06:28:50;;;;;;;0.15;0.15;;;-1.70;86.80;;;;;;4985834;28;20105;-89
2024/01/19 06:31:16;;;;;;;0.20;0.20;;;-1.80;86.90;;;;;;4995856;28;20042;-90
2024/01/19 06:33:41;;;;;;;0.10;0.10;;;-1.80;86.50;;;;;;4995451;28;20042;-88
2024/01/19 06:36:10;;;;;;;0.20;0.20;;;-1.90;86.10;;;;;;4995567;28;20073;-90
2024/01/19 06:38:36;;;;;;;0.20;0.20;;;-1.90;85.90;;;;;;4992152;28;20029;-89
2024/01/19 06:41:03;;;;;;;0.20;0.20;;;-1.90;85.70;;;;;;4988028;28;20030;-87
2024/01/19 06:43:29;;;;;;;0.20;0.20;;;-1.90;85.50;;;;;;4981263;28;20027;-88
2024/01/19 06:45:55;;;;;;;0.20;0.20;;;-1.90;85.90;;;;;;4987309;28;20065;-89
2024/01/19 06:48:21;;;;;;;0.20;0.20;;;-1.80;86.30;;;;;;4996254;28;20041;-89
2024/01/19 06:50:47;;;;;;;0.20;0.20;;;-1.80;86.50;;;;;;4977490;28;20034;-89
2024/01/19 06:53:12;;;;;;;0.20;0.20;;;-1.80;86.40;;;;;;4978660;28;20026;-91
2024/01/19 06:55:38;;;;;;;0.20;0.20;;;-1.70;86.70;;;;;;4989594;28;20033;-91
2024/01/19 06:58:03;;;;;;;0.20;0.20;;;-1.70;86.70;;;;;;4998182;28;20026;-90
2024/01/19 07:00:29;;;;;;;0.20;0.20;;;-1.70;86.40;;;;;;4991209;28;20019;-91
2024/01/19 07:02:55;;;;;;;0.20;0.20;;;-1.70;86.20;;;;;;4997258;28;20026;-91
2024/01/19 07:05:20;;;;;;;0.20;0.20;;;-1.80;85.80;;;;;;4997554;28;20037;-90
2024/01/19 07:07:46;;;;;;;0.20;0.20;;;-1.80;85.90;;;;;;4997830;28;20030;-90
2024/01/19 07:10:12;;;;;;;0.20;0.20;;;-1.80;85.80;;;;;;4997474;28;20108;-91
2024/01/19 07:12:37;;;;;;;0.20;0.20;;;-1.90;85.60;;;;;;4997359;28;20444;-90
2024/01/19 07:15:06;;;;;;;0.15;0.15;;;-1.80;85.80;;;;;;4997501;28;20406;-90
2024/01/19 07:17:32;;;;;;;0.20;0.20;;;-1.90;85.40;;;;;;4998021;28;20029;-91
2024/01/19 07:19:59;;;;;;;0.20;0.20;;;-1.80;86.00;;;;;;4995127;28;20019;-90
2024/01/19 07:22:27;;;;;;;0.17;0.17;;;-1.80;86.00;;;;;;4978039;28;20026;-91
2024/01/19 07:24:53;;;;;;;0.20;0.20;;;-1.90;86.30;;;;;;4978220;28;20022;-91
2024/01/19 07:27:19;;;;;;;0.20;0.20;;;-1.80;86.60;;;;;;4981563;28;20086;-90
2024/01/19 07:29:44;;;;;;;0.20;0.20;;;-1.80;86.30;;;;;;4993664;28;20034;-90
2024/01/19 07:32:10;;;;;;;0.20;0.20;;;-1.80;86.50;;;;;;4977729;28;20078;-91
2024/01/19 07:34:35;;;;;;;0.20;0.20;;;-1.80;86.30;;;;;;4992041;28;20018;-86
2024/01/19 07:37:02;;;;;;;0.10;0.10;;;-1.80;86.70;;;;;;4997849;28;20026;-91
2024/01/19 07:39:28;;;;;;;0.20;0.20;;;-1.70;86.50;;;;;;4997191;28;20022;-91
2024/01/19 07:41:53;;;;;;;0.20;0.20;;;-1.70;86.20;;;;;;4996953;28;20371;-92
2024/01/19 07:44:19;;;;;;;0.20;0.20;;;-1.70;85.90;;;;;;4997147;28;20029;-91
2024/01/19 07:46:48;;;;;;;0.20;0.20;;;-1.80;85.70;;;;;;4996422;28;20122;-91
2024/01/19 07:49:20;;;;;;;0.20;0.20;;;-1.80;86.00;;;;;;4996799;28;20034;-91
2024/01/19 07:51:46;;;;;;;0.20;0.20;;;-1.70;86.40;;;;;;4997226;28;20053;-92
2024/01/19 07:54:12;;;;;;;0.20;0.20;;;-1.70;86.20;;;;;;5015935;28;20034;-91
2024/01/19 07:56:37;;;;;;;0.20;0.20;;;-1.70;86.00;;;;;;5000143;28;20031;-91
2024/01/19 07:59:03;;;;;;;0.20;0.20;;;-1.70;86.10;;;;;;4996933;28;20053;-91
2024/01/19 08:01:29;;;;;;;0.20;0.20;;;-1.60;86.20;;;;;;4997124;28;20026;-91
2024/01/19 08:03:54;;;;;;;0.10;0.10;;;-1.60;85.80;;;;;;4997340;28;20026;-91
2024/01/19 08:06:20;;;;;;;0.20;0.20;;;-1.60;85.90;;;;;;4997156;28;20029;-91
2024/01/19 08:08:46;;;;;;;0.20;0.20;;;-1.60;85.80;;;;;;4979997;28;20026;-91
2024/01/19 08:11:11;;;;;;;0.20;0.20;;;-1.60;86.10;;;;;;4997166;28;20128;-91
2024/01/19 08:13:38;;;;;;;0.20;0.20;;;-1.60;85.70;;;;;;4996665;28;20026;-91
2024/01/19 08:16:07;;;;;;;0.20;0.20;;;-1.70;85.00;;;;;;4997003;28;20031;-92
2024/01/19 08:18:34;;;;;;;0.20;0.20;;;-1.70;85.40;;;;;;4995822;28;20019;-91
2024/01/19 08:21:01;;;;;;;0.20;0.20;;;-1.70;85.50;;;;;;4979295;28;20021;-91
2024/01/19 08:23:27;;;;;;;0.13;0.13;;;-1.70;85.60;;;;;;4995278;28;20045;-88
2024/01/19 08:25:53;;;;;;;0.20;0.20;;;-1.70;85.60;;;;;;4991903;28;20475;-87
2024/01/19 08:28:18;;;;;;;0.20;0.20;;;-1.60;86.00;;;;;;4989568;28;20086;-88
2024/01/19 08:30:44;;;;;;;0.20;0.20;;;-1.60;86.00;;;;;;4995067;28;20138;-85
2024/01/19 08:33:09;;;;;;;0.20;0.20;;;-1.50;85.80;;;;;;4990201;28;20401;-84
2024/01/19 08:35:38;;;;;;;0.20;0.20;;;-1.50;85.90;;;;;;4996433;28;20482;-88
2024/01/19 08:38:13;;;;;;;0.20;0.20;;;-1.40;85.90;;;;;;4993926;28;20101;-91
2024/01/19 08:40:39;;;;;;;0.20;0.20;;;-1.50;85.50;;;;;;4995109;28;20054;-88
2024/01/19 08:43:05;;;;;;;0.20;0.20;;;-1.40;85.70;;;;;;4985387;28;20034;-86
2024/01/19 08:45:33;;;;;;;0.20;0.20;;;-1.40;85.60;;;;;;4982416;28;20038;-89
2024/01/19 08:47:58;;;;;;;0.20;0.20;;;-1.50;85.00;;;;;;4987917;28;20120;-90
2024/01/19 08:50:24;;;;;;;0.10;0.10;;;-1.50;85.60;;;;;;5007654;28;20034;-89
2024/01/19 08:52:50;;;;;;;0.20;0.20;;;-1.50;85.40;;;;;;5009569;28;21198;-90
2024/01/19 08:55:20;;;;;;;0.20;0.20;;;-1.40;85.80;;;;;;4984780;28;20031;-89
2024/01/19 08:57:46;;;;;;;0.15;0.15;;;-1.40;85.70;;;;;;4978391;28;20051;-88
2024/01/19 09:00:12;;;;;;;0.20;0.20;;;-1.40;85.50;;;;;;4992004;28;20398;-90
2024/01/19 09:02:39;;;;;;;0.13;0.13;;;-1.30;85.60;;;;;;4999754;28;20054;-90
2024/01/19 09:05:07;;;;;;;0.20;0.20;;;-1.30;85.90;;;;;;5004105;28;20093;-90
2024/01/19 09:07:33;;;;;;;0.20;0.20;;;-1.20;86.10;;;;;;5019684;28;20026;-91
2024/01/19 09:10:02;;;;;;;0.20;0.20;;;-1.20;86.20;;;;;;5001336;28;20125;-91
2024/01/19 09:12:28;;;;;;;0.20;0.20;;;-1.10;86.10;;;;;;4999439;28;20037;-91
2024/01/19 09:14:59;;;;;;;0.30;0.20;;;-1.00;85.80;;;;;;4995718;28;20118;-90
2024/01/19 09:17:27;;;;;;;0.20;0.20;;;-1.00;85.90;;;;;;4980731;28;20046;-91
2024/01/19 09:19:53;;;;;;;0.10;0.10;;;-0.80;86.00;;;;;;4981121;28;20030;-90
2024/01/19 09:22:19;;;;;;;0.20;0.20;;;-0.70;85.80;;;;;;4984758;28;20518;-90
2024/01/19 09:24:44;;;;;;;0.10;0.10;;;-0.70;85.80;;;;;;4999664;28;20030;-90
2024/01/19 09:27:10;;;;;;;0.20;0.20;;;-0.50;85.70;;;;;;4999221;28;20034;-90
2024/01/19 09:29:39;;;;;;;0.20;0.20;;;-0.20;85.70;;;;;;4999728;28;20031;-90
2024/01/19 09:32:07;;;;;;;3.42;3.22;;;0.20;84.80;;;;;;4999698;28;20047;-90
2024/01/19 09:34:33;;;;;;;18.40;17.70;;;0.70;83.90;;;;;;4995844;28;20023;-90
2024/01/19 09:37:04;;;;;;;1999.90;999.90;;;1.40;82.00;;;;;;4981967;28;20030;-90
2024/01/19 09:39:39;;;;;;;2.67;2.47;;;2.10;80.40;;;;;;4987679;28;20030;-90
2024/01/19 09:42:21;;;;;;;12.50;12.00;;;2.70;79.50;;;;;;4997240;28;20377;-90
2024/01/19 09:44:58;;;;;;;1.85;1.75;;;2.80;78.00;;;;;;4985531;28;20038;-89
2024/01/19 09:47:49;;;;;;;0.40;0.40;;;2.80;77.60;;;;;;4998508;28;20038;-90
2024/01/19 09:50:19;;;;;;;0.40;0.40;;;2.70;77.90;;;;;;4957343;28;20050;-89
2024/01/19 09:52:57;;;;;;;0.20;0.20;;;2.50;78.60;;;;;;4997200;28;20497;-88
2024/01/19 09:55:24;;;;;;;0.10;0.10;;;2.30;78.90;;;;;;4984920;28;20037;-90
2024/01/19 09:57:50;;;;;;;0.20;0.20;;;2.20;79.40;;;;;;4995401;28;20023;-89
2024/01/19 10:00:18;;;;;;;0.10;0.10;;;1.90;79.90;;;;;;4989188;28;20027;-89
2024/01/19 10:02:52;;;;;;;0.20;0.20;;;1.70;80.50;;;;;;4987220;28;20453;-88
2024/01/19 10:05:20;;;;;;;0.20;0.20;;;1.50;80.80;;;;;;4995929;28;20872;-90
2024/01/19 10:07:47;;;;;;;0.10;0.10;;;1.50;81.20;;;;;;4995948;28;20389;-89
2024/01/19 10:10:15;;;;;;;0.15;0.15;;;1.40;81.80;;;;;;4994030;28;20658;-87
2024/01/19 10:12:42;;;;;;;0.20;0.20;;;1.50;82.00;;;;;;4991879;28;20098;-88
2024/01/19 10:15:12;;;;;;;0.20;0.20;;;1.40;82.20;;;;;;4979776;28;20034;-88
2024/01/19 10:17:40;;;;;;;0.10;0.10;;;1.40;82.30;;;;;;4990927;28;20054;-87
2024/01/19 10:20:09;;;;;;;0.20;0.20;;;1.50;82.70;;;;;;4996000;28;20113;-88
2024/01/19 10:22:35;;;;;;;0.17;0.17;;;1.60;82.70;;;;;;4993534;28;20131;-88
2024/01/19 10:25:09;;;;;;;0.20;0.20;;;1.60;82.70;;;;;;4978766;28;20066;-88
2024/01/19 10:27:46;;;;;;;0.20;0.20;;;1.70;82.60;;;;;;4977368;28;20026;-89
2024/01/19 10:30:15;;;;;;;0.20;0.20;;;1.70;82.40;;;;;;4977922;28;20039;-87
2024/01/19 10:32:43;;;;;;;0.20;0.20;;;1.80;82.50;;;;;;4995921;28;20050;-87
2024/01/19 10:35:11;;;;;;;0.20;0.20;;;1.90;82.50;;;;;;4991706;28;20100;-88
2024/01/19 10:37:37;;;;;;;0.20;0.20;;;1.90;82.30;;;;;;4996640;28;20025;-88
2024/01/19 10:40:20;;;;;;;0.20;0.20;;;2.00;82.20;;;;;;4993180;28;20029;-83
2024/01/19 10:42:48;;;;;;;0.10;0.10;;;2.00;82.00;;;;;;4997511;28;20498;-87
2024/01/19 10:45:24;;;;;;;0.20;0.20;;;2.10;82.30;;;;;;4980759;28;20031;-87
2024/01/19 10:47:52;;;;;;;0.10;0.10;;;2.20;82.20;;;;;;4990452;28;20030;-87
2024/01/19 10:50:19;;;;;;;0.17;0.17;;;2.20;82.20;;;;;;4977352;28;20034;-86
2024/01/19 10:52:48;;;;;;;0.13;0.13;;;2.20;82.30;;;;;;4978315;28;20121;-85
2024/01/19 10:55:28;;;;;;;0.20;0.20;;;2.30;81.90;;;;;;4977730;28;20050;-86
2024/01/19 10:58:12;;;;;;;0.20;0.20;;;2.30;82.00;;;;;;4997761;28;20026;-85
2024/01/19 11:00:38;;;;;;;0.10;0.10;;;2.40;83.00;;;;;;4987413;28;20037;-88
2024/01/19 11:03:04;;;;;;;0.20;0.20;;;2.40;83.10;;;;;;4982324;28;20080;-84
2024/01/19 11:05:31;;;;;;;0.10;0.10;;;2.50;82.90;;;;;;4994184;28;20037;-88
2024/01/19 11:07:59;;;;;;;0.20;0.20;;;2.40;83.10;;;;;;4977124;28;20462;-85
2024/01/19 11:10:27;;;;;;;0.10;0.10;;;2.50;83.10;;;;;;4990385;28;20037;-85
2024/01/19 11:12:55;;;;;;;0.20;0.20;;;2.50;83.10;;;;;;4978274;28;20047;-79
2024/01/19 11:15:53;;;;;;;0.10;0.10;;;2.50;82.90;;;;;;4992459;28;20026;-83
2024/01/19 11:18:19;;;;;;;0.20;0.20;;;2.50;83.00;;;;;;4996603;28;20027;-87
2024/01/19 11:20:45;;;;;;;0.20;0.20;;;2.50;82.70;;;;;;4983407;28;20031;-83
2024/01/19 11:23:12;;;;;;;0.17;0.17;;;2.60;82.70;;;;;;4977282;28;20031;-85
2024/01/19 11:25:48;;;;;;;0.20;0.20;;;2.70;82.70;;;;;;4978290;28;20077;-86
2024/01/19 11:28:41;;;;;;;0.20;0.20;;;2.70;82.70;;;;;;4977236;28;20077;-86
2024/01/19 11:31:13;;;;;;;0.20;0.20;;;2.70;81.80;;;;;;4978059;28;20069;-83
2024/01/19 11:33:39;;;;;;;0.10;0.10;;;2.80;81.50;;;;;;4987013;28;20019;-87
2024/01/19 11:36:05;;;;;;;0.10;0.10;;;3.00;81.30;;;;;;4992429;28;20038;-85
2024/01/19 11:38:44;;;;;;;0.20;0.20;;;3.00;81.00;;;;;;4993931;28;20107;-86
2024/01/19 11:41:29;;;;;;;0.10;0.10;;;3.10;80.10;;;;;;4991807;28;20034;-85
2024/01/19 11:43:55;;;;;;;0.10;0.10;;;3.20;79.70;;;;;;4989856;28;20030;-86
2024/01/19 11:46:46;;;;;;;0.17;0.17;;;3.20;79.70;;;;;;4991088;28;20122;-87
2024/01/19 11:49:31;;;;;;;0.20;0.20;;;3.20;79.20;;;;;;4992432;28;20041;-87
2024/01/19 11:51:57;;;;;;;0.13;0.13;;;3.30;79.30;;;;;;4992399;28;20031;-88
2024/01/19 11:54:26;;;;;;;0.17;0.17;;;3.40;78.90;;;;;;4996170;28;20027;-89
2024/01/19 11:56:52;;;;;;;0.10;0.10;;;3.30;79.00;;;;;;4993628;28;20050;-87
2024/01/19 11:59:21;;;;;;;0.20;0.20;;;3.40;78.40;;;;;;4993034;28;20022;-87
2024/01/19 12:01:47;;;;;;;0.20;0.20;;;3.40;79.00;;;;;;4994479;28;20406;-87
2024/01/19 12:04:14;;;;;;;0.20;0.20;;;3.50;78.70;;;;;;4995815;28;20030;-88
2024/01/19 12:06:40;;;;;;;0.15;0.15;;;3.60;78.60;;;;;;4996842;28;20037;-88
2024/01/19 12:09:07;;;;;;;0.10;0.10;;;3.60;78.50;;;;;;4982591;28;20659;-88
2024/01/19 12:11:36;;;;;;;0.10;0.10;;;3.60;78.70;;;;;;4992390;28;20080;-85
2024/01/19 12:14:05;;;;;;;0.10;0.10;;;3.70;77.90;;;;;;4983263;28;20023;-89
2024/01/19 12:16:31;;;;;;;0.20;0.20;;;3.70;77.50;;;;;;4994430;28;20062;-90
2024/01/19 12:18:57;;;;;;;0.13;0.13;;;3.70;77.30;;;;;;4993378;28;20485;-89
2024/01/19 12:21:24;;;;;;;0.13;0.13;;;3.80;77.30;;;;;;4977106;28;20035;-89
2024/01/19 12:23:57;;;;;;;0.10;0.10;;;3.80;77.50;;;;;;4983492;28;20061;-90
2024/01/19 12:26:23;;;;;;;0.20;0.20;;;3.80;77.60;;;;;;4985568;28;20030;-90
2024/01/19 12:28:54;;;;;;;0.15;0.15;;;3.90;76.80;;;;;;4988080;28;20102;-89
2024/01/19 12:31:24;;;;;;;0.10;0.10;;;4.00;76.10;;;;;;4991414;28;20070;-90
2024/01/19 12:33:50;;;;;;;0.10;0.10;;;4.00;75.80;;;;;;4990262;28;20050;-90
2024/01/19 12:36:18;;;;;;;0.10;0.10;;;4.10;75.10;;;;;;4999749;28;20393;-89
2024/01/19 12:38:44;;;;;;;0.10;0.10;;;4.20;75.90;;;;;;4994576;28;20031;-90
2024/01/19 12:41:17;;;;;;;0.20;0.20;;;4.20;75.30;;;;;;4988478;28;20109;-89
2024/01/19 12:43:43;;;;;;;;;;;4.20;75.40;;;;;;4992777;28;20105;-89
2024/01/19 12:46:08;;;;;;;0.13;0.13;;;4.20;75.00;;;;;;4998370;28;19964;-86
2024/01/19 12:48:35;;;;;;;0.15;0.15;;;4.20;74.90;;;;;;4995337;28;20026;-87
2024/01/19 12:51:07;;;;;;;0.13;0.13;;;4.20;75.00;;;;;;4998242;28;20025;-88
2024/01/19 12:53:34;;;;;;;0.10;0.10;;;4.30;74.60;;;;;;4985528;28;20027;-88
2024/01/19 12:56:01;;;;;;;0.20;0.20;;;4.30;74.20;;;;;;4980804;28;20022;-89
2024/01/19 12:58:27;;;;;;;0.20;0.20;;;4.30;74.40;;;;;;4998145;28;20030;-86
2024/01/19 13:01:02;;;;;;;0.10;0.10;;;4.30;73.90;;;;;;4987581;28;20030;-86
2024/01/19 13:03:27;;;;;;;0.17;0.17;;;4.40;72.50;;;;;;4988441;28;20026;-87
2024/01/19 13:05:59;;;;;;;0.10;0.10;;;4.40;73.60;;;;;;4999453;28;20030;-87
2024/01/19 13:08:25;;;;;;;0.10;0.10;;;4.50;73.60;;;;;;4999316;28;20033;-86
2024/01/19 13:11:04;;;;;;;0.10;0.10;;;4.50;73.50;;;;;;4993611;28;20019;-86
2024/01/19 13:13:30;;;;;;;0.10;0.10;;;4.50;72.90;;;;;;4997584;28;20085;-87
2024/01/19 13:16:04;;;;;;;0.10;0.10;;;4.60;72.90;;;;;;4996336;28;20069;-87
2024/01/19 13:18:29;;;;;;;0.10;0.10;;;4.50;72.20;;;;;;5012045;28;20081;-87
2024/01/19 13:20:55;;;;;;;0.20;0.20;;;4.60;72.50;;;;;;4996265;28;20030;-87
2024/01/19 13:23:21;;;;;;;0.10;0.10;;;4.60;72.40;;;;;;4997959;28;20057;-86
2024/01/19 13:25:55;;;;;;;0.10;0.10;;;4.60;71.90;;;;;;4991122;28;20398;-87
2024/01/19 13:28:20;;;;;;;0.10;0.10;;;4.60;71.80;;;;;;4979682;28;20034;-88
2024/01/19 13:30:47;;;;;;;0.17;0.17;;;4.60;71.90;;;;;;4994442;28;20514;-86
2024/01/19 13:33:13;;;;;;;0.10;0.10;;;4.60;70.80;;;;;;4985973;28;20578;-87
2024/01/19 13:35:38;;;;;;;0.20;0.20;;;4.60;69.90;;;;;;4998058;28;20062;-86
2024/01/19 13:38:07;;;;;;;0.20;0.20;;;4.70;71.10;;;;;;4998999;28;20033;-86
2024/01/19 13:40:32;;;;;;;0.10;0.10;;;4.70;69.30;;;;;;4982267;28;20396;-86
2024/01/19 13:42:58;;;;;;;0.20;0.20;;;4.80;69.70;;;;;;4982447;28;20033;-86
2024/01/19 13:45:24;;;;;;;0.10;0.10;;;4.80;68.90;;;;;;4997559;28;20042;-87
2024/01/19 13:47:49;;;;;;;0.10;0.10;;;4.80;69.70;;;;;;4993244;28;20023;-88
2024/01/19 13:50:15;;;;;;;0.10;0.10;;;4.80;69.30;;;;;;4985969;28;20089;-89
2024/01/19 13:52:40;;;;;;;0.10;0.10;;;4.80;69.80;;;;;;4996879;28;20033;-86
2024/01/19 13:55:08;;;;;;;0.10;0.10;;;4.80;69.70;;;;;;4996745;28;20034;-86
2024/01/19 13:57:33;;;;;;;0.10;0.10;;;4.80;68.30;;;;;;4996365;28;20450;-86
2024/01/19 13:59:59;;;;;;;0.10;0.10;;;4.90;69.30;;;;;;4997006;28;20022;-86
2024/01/19 14:02:25;;;;;;;0.10;0.10;;;4.90;68.20;;;;;;4996125;28;20038;-86
2024/01/19 14:04:53;;;;;;;0.10;0.10;;;4.90;68.90;;;;;;4996086;28;20092;-87
2024/01/19 14:07:20;;;;;;;0.10;0.10;;;4.90;68.40;;;;;;4998186;28;20025;-86
2024/01/19 14:09:48;;;;;;;0.10;0.10;;;5.00;68.00;;;;;;4995253;28;20034;-87
2024/01/19 14:12:14;;;;;;;0.10;0.10;;;5.00;68.30;;;;;;4997703;28;20033;-87
2024/01/19 14:14:41;;;;;;;0.10;0.10;;;5.00;67.90;;;;;;4996829;28;20114;-87
2024/01/19 14:17:07;;;;;;;0.10;0.10;;;5.00;67.10;;;;;;4996623;28;20023;-87
2024/01/19 14:19:33;;;;;;;0.10;0.10;;;5.00;67.10;;;;;;4996085;28;20033;-87
2024/01/19 14:21:58;;;;;;;0.10;0.10;;;5.00;68.10;;;;;;4995529;28;20026;-87
2024/01/19 14:24:24;;;;;;;0.15;0.15;;;5.10;66.90;;;;;;4997739;28;20042;-87
2024/01/19 14:26:49;;;;;;;0.10;0.10;;;5.10;67.50;;;;;;4994992;28;20505;-87
2024/01/19 14:29:16;;;;;;;0.10;0.10;;;5.00;68.00;;;;;;4993613;28;20105;-88
2024/01/19 14:31:42;;;;;;;0.10;0.10;;;5.00;67.90;;;;;;4996906;28;20081;-87
2024/01/19 14:34:09;;;;;;;0.20;0.20;;;5.00;68.10;;;;;;4995496;28;20636;-87
2024/01/19 14:36:34;;;;;;;0.10;0.10;;;5.00;66.90;;;;;;4992319;28;20077;-87
2024/01/19 14:39:00;;;;;;;0.10;0.10;;;5.00;65.00;;;;;;4994412;28;20038;-87
2024/01/19 14:41:26;;;;;;;0.10;0.10;;;4.90;66.60;;;;;;4995658;28;20105;-87
2024/01/19 14:43:52;;;;;;;0.10;0.10;;;5.00;67.20;;;;;;5009885;28;20057;-87
2024/01/19 14:46:18;;;;;;;0.10;0.10;;;5.00;67.10;;;;;;4997534;28;20030;-87
2024/01/19 14:48:44;;;;;;;0.10;0.10;;;5.00;67.40;;;;;;4993164;28;20082;-87
2024/01/19 14:51:11;;;;;;;0.10;0.10;;;5.00;67.90;;;;;;4988968;28;20030;-88
2024/01/19 14:53:38;;;;;;;0.10;0.10;;;5.00;68.40;;;;;;4992495;28;20026;-87
2024/01/19 14:56:06;;;;;;;0.10;0.10;;;5.00;66.20;;;;;;4986682;28;20042;-87
2024/01/19 14:58:31;;;;;;;0.15;0.15;;;5.00;66.80;;;;;;4992035;28;20027;-87
2024/01/19 15:00:57;;;;;;;0.10;0.10;;;5.00;65.50;;;;;;4981787;28;20082;-87
2024/01/19 15:03:23;;;;;;;0.10;0.10;;;5.00;67.20;;;;;;4996872;28;20371;-86
2024/01/19 15:05:56;;;;;;;0.10;0.10;;;5.00;67.20;;;;;;4994935;28;20500;-89
2024/01/19 15:08:22;;;;;;;0.10;0.10;;;4.90;67.20;;;;;;4991801;28;20046;-88
2024/01/19 15:10:49;;;;;;;0.10;0.10;;;5.00;67.20;;;;;;5008458;28;20482;-87
2024/01/19 15:13:15;;;;;;;0.10;0.10;;;5.00;67.80;;;;;;4981440;28;20073;-89
2024/01/19 15:15:40;;;;;;;0.10;0.10;;;5.00;68.00;;;;;;4995895;28;20022;-83
2024/01/19 15:18:06;;;;;;;0.10;0.10;;;4.90;68.10;;;;;;4996179;28;20030;-89
2024/01/19 15:20:32;;;;;;;0.10;0.10;;;4.90;68.60;;;;;;4991219;28;20401;-89
2024/01/19 15:22:57;;;;;;;0.20;0.20;;;4.80;68.60;;;;;;4996787;28;20109;-89
2024/01/19 15:25:23;;;;;;;0.10;0.10;;;4.80;68.40;;;;;;4981649;28;20089;-89
2024/01/19 15:27:49;;;;;;;0.20;0.20;;;4.90;67.90;;;;;;4976907;28;20030;-89
2024/01/19 15:30:16;;;;;;;0.10;0.10;;;4.80;68.30;;;;;;4976158;28;20030;-89
2024/01/19 15:32:42;;;;;;;0.10;0.10;;;4.80;68.30;;;;;;4978871;28;20034;-89
2024/01/19 15:35:08;;;;;;;0.10;0.10;;;4.80;68.50;;;;;;4997268;28;20462;-89
2024/01/19 15:37:36;;;;;;;0.15;0.15;;;4.80;68.70;;;;;;4991959;28;20022;-89
2024/01/19 15:40:01;;;;;;;0.20;0.20;;;4.80;68.90;;;;;;4980011;28;20455;-89
2024/01/19 15:42:27;;;;;;;0.10;0.10;;;4.80;68.80;;;;;;4995438;28;20078;-89
2024/01/19 15:44:53;;;;;;;0.10;0.10;;;4.80;68.40;;;;;;4994134;28;20166;-87
2024/01/19 15:47:19;;;;;;;0.10;0.10;;;4.70;68.30;;;;;;4987420;28;20069;-87
2024/01/19 15:49:44;;;;;;;0.20;0.20;;;4.70;68.10;;;;;;4993618;28;20037;-87
2024/01/19 15:52:10;;;;;;;0.10;0.10;;;4.70;67.70;;;;;;4995170;28;20041;-88
2024/01/19 15:54:39;;;;;;;0.10;0.10;;;4.70;68.40;;;;;;4994274;28;20026;-88
2024/01/19 15:57:05;;;;;;;0.10;0.10;;;4.60;67.80;;;;;;4993747;28;20030;-87
2024/01/19 15:59:31;;;;;;;0.10;0.10;;;4.60;68.20;;;;;;4993898;28;20687;-87
2024/01/19 16:01:56;;;;;;;0.10;0.10;;;4.60;66.50;;;;;;4994837;28;20516;-89
2024/01/19 16:04:23;;;;;;;0.10;0.10;;;4.50;67.30;;;;;;4994840;28;20363;-89
2024/01/19 16:06:49;;;;;;;0.20;0.20;;;4.50;67.50;;;;;;4998985;28;20564;-88
2024/01/19 16:09:14;;;;;;;0.10;0.10;;;4.50;67.50;;;;;;4994134;28;20023;-88
2024/01/19 16:11:40;;;;;;;0.15;0.15;;;4.40;68.50;;;;;;4994197;28;20030;-88
2024/01/19 16:14:06;;;;;;;0.20;0.20;;;4.30;68.40;;;;;;4994094;28;20026;-84
2024/01/19 16:16:33;;;;;;;0.20;0.20;;;4.30;69.20;;;;;;4989842;28;20085;-89
2024/01/19 16:18:59;;;;;;;0.20;0.20;;;4.20;69.30;;;;;;4994998;28;20031;-83
2024/01/19 16:21:26;;;;;;;0.10;0.10;;;4.10;69.90;;;;;;4998146;28;20065;-84
2024/01/19 16:23:52;;;;;;;0.10;0.10;;;4.00;70.80;;;;;;4995286;28;20025;-84
2024/01/19 16:26:19;;;;;;;0.20;0.20;;;3.80;70.20;;;;;;4993891;28;20402;-86
2024/01/19 16:28:47;;;;;;;0.10;0.10;;;3.80;70.40;;;;;;4994410;28;20035;-86
2024/01/19 16:31:13;;;;;;;0.10;0.10;;;3.70;70.80;;;;;;4994713;28;20050;-79
2024/01/19 16:33:38;;;;;;;0.20;0.20;;;3.60;71.90;;;;;;4995570;28;20034;-80
2024/01/19 16:36:06;;;;;;;0.10;0.10;;;3.60;72.10;;;;;;4994132;28;20029;-79
2024/01/19 16:38:32;;;;;;;0.10;0.10;;;3.50;71.50;;;;;;4984531;28;20014;-79
2024/01/19 16:40:58;;;;;;;0.10;0.10;;;3.40;71.10;;;;;;4992869;28;20058;-80
2024/01/19 16:43:24;;;;;;;0.10;0.10;;;3.30;71.50;;;;;;4992047;28;20100;-80
2024/01/19 16:45:50;;;;;;;0.10;0.10;;;3.20;72.20;;;;;;4980997;28;20035;-80
2024/01/19 16:48:16;;;;;;;0.10;0.10;;;3.20;72.70;;;;;;4992779;28;20074;-80
2024/01/19 16:50:42;;;;;;;0.10;0.10;;;3.20;72.30;;;;;;4970104;28;20461;-80
2024/01/19 16:53:09;;;;;;;0.20;0.20;;;3.10;71.70;;;;;;4994464;28;20034;-81
2024/01/19 16:55:34;;;;;;;0.10;0.10;;;3.00;72.40;;;;;;4992996;28;20027;-81
2024/01/19 16:58:00;;;;;;;0.10;0.10;;;2.90;72.70;;;;;;4991487;28;20025;-80
2024/01/19 17:00:26;;;;;;;0.10;0.10;;;2.80;73.90;;;;;;4995498;28;20057;-81
2024/01/19 17:02:52;;;;;;;0.10;0.10;;;2.80;73.30;;;;;;4992558;28;20027;-81
2024/01/19 17:05:18;;;;;;;0.15;0.15;;;2.70;74.40;;;;;;4994051;28;20031;-80
2024/01/19 17:07:49;;;;;;;0.20;0.20;;;2.70;74.30;;;;;;4995095;28;20019;-81
2024/01/19 17:10:15;;;;;;;0.20;0.20;;;2.60;74.30;;;;;;4988716;28;20054;-81
2024/01/19 17:12:45;;;;;;;0.15;0.15;;;2.50;74.60;;;;;;4988997;28;20045;-81
2024/01/19 17:15:11;;;;;;;0.20;0.20;;;2.50;74.20;;;;;;4994065;28;20061;-81
2024/01/19 17:17:37;;;;;;;0.15;0.15;;;2.40;75.50;;;;;;4995628;28;20030;-83
2024/01/19 17:20:03;;;;;;;0.10;0.10;;;2.30;75.20;;;;;;4983620;28;20110;-82
2024/01/19 17:22:29;;;;;;;0.10;0.10;;;2.30;75.60;;;;;;4998847;28;20030;-85
2024/01/19 17:24:55;;;;;;;0.10;0.10;;;2.30;76.60;;;;;;4993569;28;20230;-82
2024/01/19 17:27:21;;;;;;;0.20;0.20;;;2.20;77.20;;;;;;4996009;28;20037;-81
2024/01/19 17:32:55;;;;;;;0.20;0.20;;;2.10;76.50;;;;;;4990929;28;20716;-86
2024/01/19 17:36:42;;;;;;;0.20;0.20;;;2.10;76.90;;;;;;4993346;28;20027;-81
2024/01/19 17:39:02;;;;;;;0.20;0.20;;;2.00;77.30;;;;;;4966919;28;20038;-78
2024/01/19 17:41:30;;;;;;;0.20;0.20;;;2.00;78.20;;;;;;4994099;28;20026;-79
2024/01/19 17:44:01;;;;;;;0.20;0.20;;;1.90;78.10;;;;;;4997059;28;20061;-78
2024/01/19 17:46:27;;;;;;;0.17;0.17;;;1.90;78.40;;;;;;4996859;28;20110;-79
2024/01/19 17:48:53;;;;;;;0.20;0.20;;;1.90;78.20;;;;;;4998004;28;20027;-77
2024/01/19 17:51:20;;;;;;;0.20;0.20;;;1.90;78.10;;;;;;4996003;28;20080;-77
2024/01/19 17:53:46;;;;;;;0.10;0.10;;;1.80;78.50;;;;;;4996153;28;20465;-76
2024/01/19 17:56:12;;;;;;;0.20;0.20;;;1.80;78.50;;;;;;4995621;28;20034;-77
2024/01/19 17:58:38;;;;;;;0.10;0.10;;;1.70;78.80;;;;;;4995618;28;20026;-77
2024/01/19 18:01:03;;;;;;;0.10;0.10;;;1.70;78.60;;;;;;4995129;28;20034;-76
2024/01/19 18:03:29;;;;;;;0.20;0.20;;;1.70;79.00;;;;;;4995128;28;20027;-77
2024/01/19 18:05:55;;;;;;;0.20;0.20;;;1.70;79.10;;;;;;4991738;28;20117;-79
2024/01/19 18:08:23;;;;;;;0.17;0.17;;;1.60;78.80;;;;;;4995799;28;20027;-78
2024/01/19 18:10:48;;;;;;;0.20;0.20;;;1.60;79.30;;;;;;4996663;28;20026;-80
2024/01/19 18:13:14;;;;;;;0.20;0.20;;;1.50;79.00;;;;;;4992479;28;20023;-79
2024/01/19 18:15:40;;;;;;;0.20;0.20;;;1.50;79.60;;;;;;4995954;28;20018;-77
2024/01/19 18:18:05;;;;;;;0.20;0.20;;;1.50;79.30;;;;;;4994915;28;20026;-75
2024/01/19 18:20:31;;;;;;;0.10;0.10;;;1.40;79.60;;;;;;4996819;28;20034;-78
2024/01/19 18:22:57;;;;;;;0.10;0.10;;;1.40;79.60;;;;;;4991901;28;20394;-76
2024/01/19 18:25:23;;;;;;;0.20;0.20;;;1.40;79.80;;;;;;4990339;28;20034;-78
2024/01/19 18:27:49;;;;;;;0.20;0.20;;;1.40;79.70;;;;;;4990202;28;20556;-79